sensor_id;sensor_type;location;lat;lon;timestamp;temperature;humidity
2459;DHT22;1241;50.920;6.936;2023-03-23T00:01:19;13.90;99.90
2459;DHT22;1241;50.920;6.936;2023-03-23T00:03:47;13.90;99.90
2459;DHT22;1241;50.920;6.936;2023-03-23T00:06:13;13.80;99.90
2459;DHT22;1241;50.920;6.936;2023-03-23T00:08:45;13.80;99.90
2459;DHT22;1241;50.920;6.936;2023-03-23T00:11:19;13.80;99.90
2459;DHT22;1241;50.920;6.936;2023-03-23T00:13:46;13.80;99.90
2459;DHT22;1241;50.920;6.936;2023-03-23T00:16:13;13.80;99.90
2459;DHT22;1241;50.920;6.936;2023-03-23T00:18:50;13.90;99.90
2459;DHT22;1241;50.920;6.936;2023-03-23T00:21:22;13.80;99.90
2459;DHT22;1241;50.920;6.936;2023-03-23T00:24:07;13.70;99.90
2459;DHT22;1241;50.920;6.936;2023-03-23T00:26:37;13.80;99.90
2459;DHT22;1241;50.920;6.936;2023-03-23T00:29:16;13.90;99.90
2459;DHT22;1241;50.920;6.936;2023-03-23T00:31:43;13.90;99.90
2459;DHT22;1241;50.920;6.936;2023-03-23T00:34:14;13.80;99.90
2459;DHT22;1241;50.920;6.936;2023-03-23T00:36:44;13.80;99.90
2459;DHT22;1241;50.920;6.936;2023-03-23T00:39:11;13.90;99.90
2459;DHT22;1241;50.920;6.936;2023-03-23T00:41:37;13.90;99.90
2459;DHT22;1241;50.920;6.936;2023-03-23T00:44:04;13.80;99.90
2459;DHT22;1241;50.920;6.936;2023-03-23T00:46:30;13.90;99.90
2459;DHT22;1241;50.920;6.936;2023-03-23T00:48:56;13.80;99.90
2459;DHT22;1241;50.920;6.936;2023-03-23T00:51:23;13.80;99.90
2459;DHT22;1241;50.920;6.936;2023-03-23T00:53:49;13.80;99.90
2459;DHT22;1241;50.920;6.936;2023-03-23T00:56:15;13.90;99.90
2459;DHT22;1241;50.920;6.936;2023-03-23T00:58:41;13.80;99.90
2459;DHT22;1241;50.920;6.936;2023-03-23T01:01:07;13.90;99.90
2459;DHT22;1241;50.920;6.936;2023-03-23T01:03:33;13.90;99.90
2459;DHT22;1241;50.920;6.936;2023-03-23T01:06:08;13.90;99.90
2459;DHT22;1241;50.920;6.936;2023-03-23T01:08:39;13.80;99.90
2459;DHT22;1241;50.920;6.936;2023-03-23T01:11:12;13.80;99.90
2459;DHT22;1241;50.920;6.936;2023-03-23T01:13:38;13.80;99.90
2459;DHT22;1241;50.920;6.936;2023-03-23T01:16:06;13.90;99.90
2459;DHT22;1241;50.920;6.936;2023-03-23T01:18:32;13.80;99.90
2459;DHT22;1241;50.920;6.936;2023-03-23T01:20:57;13.80;99.90
2459;DHT22;1241;50.920;6.936;2023-03-23T01:23:23;13.70;99.90
2459;DHT22;1241;50.920;6.936;2023-03-23T01:25:49;13.70;99.90
2459;DHT22;1241;50.920;6.936;2023-03-23T01:28:15;13.70;99.90
2459;DHT22;1241;50.920;6.936;2023-03-23T01:30:41;13.70;99.90
2459;DHT22;1241;50.920;6.936;2023-03-23T01:33:07;13.70;99.90
2459;DHT22;1241;50.920;6.936;2023-03-23T01:35:32;13.80;99.90
2459;DHT22;1241;50.920;6.936;2023-03-23T01:37:58;13.80;99.90
2459;DHT22;1241;50.920;6.936;2023-03-23T01:40:26;13.80;99.90
2459;DHT22;1241;50.920;6.936;2023-03-23T01:42:53;13.80;99.90
2459;DHT22;1241;50.920;6.936;2023-03-23T01:48:00;13.70;99.90
2459;DHT22;1241;50.920;6.936;2023-03-23T01:50:30;13.70;99.90
2459;DHT22;1241;50.920;6.936;2023-03-23T01:53:02;13.60;99.90
2459;DHT22;1241;50.920;6.936;2023-03-23T01:55:30;13.60;99.90
2459;DHT22;1241;50.920;6.936;2023-03-23T01:57:57;13.50;99.90
2459;DHT22;1241;50.920;6.936;2023-03-23T02:00:24;13.50;99.90
2459;DHT22;1241;50.920;6.936;2023-03-23T02:02:54;13.50;99.90
2459;DHT22;1241;50.920;6.936;2023-03-23T02:05:34;13.60;99.90
2459;DHT22;1241;50.920;6.936;2023-03-23T02:08:09;13.60;99.90
2459;DHT22;1241;50.920;6.936;2023-03-23T02:10:37;13.50;99.90
2459;DHT22;1241;50.920;6.936;2023-03-23T02:13:04;13.40;99.90
2459;DHT22;1241;50.920;6.936;2023-03-23T02:15:54;13.40;99.90
2459;DHT22;1241;50.920;6.936;2023-03-23T02:34:30;13.30;99.90
2459;DHT22;1241;50.920;6.936;2023-03-23T02:37:19;13.20;99.90
2459;DHT22;1241;50.920;6.936;2023-03-23T02:39:52;13.30;99.90
2459;DHT22;1241;50.920;6.936;2023-03-23T02:42:24;13.20;99.90
2459;DHT22;1241;50.920;6.936;2023-03-23T02:44:52;13.10;99.90
2459;DHT22;1241;50.920;6.936;2023-03-23T02:47:22;13.10;99.90
2459;DHT22;1241;50.920;6.936;2023-03-23T02:49:52;13.10;99.90
2459;DHT22;1241;50.920;6.936;2023-03-23T02:52:22;13.10;99.90
2459;DHT22;1241;50.920;6.936;2023-03-23T02:54:51;13.10;99.90
2459;DHT22;1241;50.920;6.936;2023-03-23T02:57:17;13.10;99.90
2459;DHT22;1241;50.920;6.936;2023-03-23T02:59:45;13.10;99.90
2459;DHT22;1241;50.920;6.936;2023-03-23T03:02:18;13.10;99.90
2459;DHT22;1241;50.920;6.936;2023-03-23T03:04:53;13.10;99.90
2459;DHT22;1241;50.920;6.936;2023-03-23T03:07:33;13.10;99.90
2459;DHT22;1241;50.920;6.936;2023-03-23T03:10:25;13.10;99.90
2459;DHT22;1241;50.920;6.936;2023-03-23T03:21:11;13.10;99.90
2459;DHT22;1241;50.920;6.936;2023-03-23T03:23:42;13.10;99.90
2459;DHT22;1241;50.920;6.936;2023-03-23T03:26:11;13.10;99.90
2459;DHT22;1241;50.920;6.936;2023-03-23T03:28:49;13.10;99.90
2459;DHT22;1241;50.920;6.936;2023-03-23T03:31:20;13.10;99.90
2459;DHT22;1241;50.920;6.936;2023-03-23T03:33:47;13.10;99.90
2459;DHT22;1241;50.920;6.936;2023-03-23T03:36:19;13.10;99.90
2459;DHT22;1241;50.920;6.936;2023-03-23T03:38:49;13.10;99.90
2459;DHT22;1241;50.920;6.936;2023-03-23T03:41:15;13.10;99.90
2459;DHT22;1241;50.920;6.936;2023-03-23T03:43:42;13.20;99.90
2459;DHT22;1241;50.920;6.936;2023-03-23T03:46:08;13.10;99.90
2459;DHT22;1241;50.920;6.936;2023-03-23T03:48:34;13.10;99.90
2459;DHT22;1241;50.920;6.936;2023-03-23T03:51:00;13.20;99.90
2459;DHT22;1241;50.920;6.936;2023-03-23T03:53:30;13.10;99.90
2459;DHT22;1241;50.920;6.936;2023-03-23T03:55:56;13.10;99.90
2459;DHT22;1241;50.920;6.936;2023-03-23T03:58:26;13.10;99.90
2459;DHT22;1241;50.920;6.936;2023-03-23T04:01:10;13.10;99.90
2459;DHT22;1241;50.920;6.936;2023-03-23T04:03:38;13.00;99.90
2459;DHT22;1241;50.920;6.936;2023-03-23T04:06:09;12.90;99.90
2459;DHT22;1241;50.920;6.936;2023-03-23T04:08:36;13.10;99.90
2459;DHT22;1241;50.920;6.936;2023-03-23T04:11:07;13.10;99.90
2459;DHT22;1241;50.920;6.936;2023-03-23T04:13:34;13.20;99.90
2459;DHT22;1241;50.920;6.936;2023-03-23T04:16:09;13.20;99.90
2459;DHT22;1241;50.920;6.936;2023-03-23T04:18:35;13.20;99.90
2459;DHT22;1241;50.920;6.936;2023-03-23T04:21:03;13.20;99.90
2459;DHT22;1241;50.920;6.936;2023-03-23T04:23:30;13.20;99.90
2459;DHT22;1241;50.920;6.936;2023-03-23T04:26:02;13.20;99.90
2459;DHT22;1241;50.920;6.936;2023-03-23T04:28:34;13.10;99.90
2459;DHT22;1241;50.920;6.936;2023-03-23T04:31:23;13.10;99.90
2459;DHT22;1241;50.920;6.936;2023-03-23T04:33:58;13.10;99.90
2459;DHT22;1241;50.920;6.936;2023-03-23T04:36:30;13.10;99.90
2459;DHT22;1241;50.920;6.936;2023-03-23T04:39:02;13.10;99.90
2459;DHT22;1241;50.920;6.936;2023-03-23T04:41:32;13.10;99.90
2459;DHT22;1241;50.920;6.936;2023-03-23T04:44:16;13.10;99.90
2459;DHT22;1241;50.920;6.936;2023-03-23T04:46:47;13.10;99.90
2459;DHT22;1241;50.920;6.936;2023-03-23T04:49:17;13.10;99.90
2459;DHT22;1241;50.920;6.936;2023-03-23T04:51:48;13.00;99.90
2459;DHT22;1241;50.920;6.936;2023-03-23T04:54:22;13.10;99.90
2459;DHT22;1241;50.920;6.936;2023-03-23T04:56:53;13.20;99.90
2459;DHT22;1241;50.920;6.936;2023-03-23T04:59:18;13.20;99.90
2459;DHT22;1241;50.920;6.936;2023-03-23T05:01:57;13.10;99.90
2459;DHT22;1241;50.920;6.936;2023-03-23T05:04:25;13.10;99.90
2459;DHT22;1241;50.920;6.936;2023-03-23T05:07:08;13.20;99.90
2459;DHT22;1241;50.920;6.936;2023-03-23T05:09:41;13.20;99.90
2459;DHT22;1241;50.920;6.936;2023-03-23T05:12:09;13.10;99.90
2459;DHT22;1241;50.920;6.936;2023-03-23T05:14:44;13.20;99.90
2459;DHT22;1241;50.920;6.936;2023-03-23T05:17:16;13.20;99.90
2459;DHT22;1241;50.920;6.936;2023-03-23T05:19:43;13.20;99.90
2459;DHT22;1241;50.920;6.936;2023-03-23T05:22:29;13.20;99.90
2459;DHT22;1241;50.920;6.936;2023-03-23T05:24:59;13.20;99.90
2459;DHT22;1241;50.920;6.936;2023-03-23T05:27:25;13.30;99.90
2459;DHT22;1241;50.920;6.936;2023-03-23T05:29:55;13.30;99.90
2459;DHT22;1241;50.920;6.936;2023-03-23T05:32:21;13.30;99.90
2459;DHT22;1241;50.920;6.936;2023-03-23T05:35:00;13.30;99.90
2459;DHT22;1241;50.920;6.936;2023-03-23T05:37:27;13.20;99.90
2459;DHT22;1241;50.920;6.936;2023-03-23T05:40:08;13.30;99.90
2459;DHT22;1241;50.920;6.936;2023-03-23T05:42:43;13.20;99.90
2459;DHT22;1241;50.920;6.936;2023-03-23T05:45:15;13.20;99.90
2459;DHT22;1241;50.920;6.936;2023-03-23T05:47:43;13.20;99.90
2459;DHT22;1241;50.920;6.936;2023-03-23T05:50:13;13.20;99.90
2459;DHT22;1241;50.920;6.936;2023-03-23T05:52:40;13.20;99.90
2459;DHT22;1241;50.920;6.936;2023-03-23T05:55:10;13.30;99.90
2459;DHT22;1241;50.920;6.936;2023-03-23T05:57:38;13.30;99.90
2459;DHT22;1241;50.920;6.936;2023-03-23T06:00:08;13.30;99.90
2459;DHT22;1241;50.920;6.936;2023-03-23T06:02:42;13.40;99.90
2459;DHT22;1241;50.920;6.936;2023-03-23T06:05:13;13.40;99.90
2459;DHT22;1241;50.920;6.936;2023-03-23T06:07:44;13.30;99.90
2459;DHT22;1241;50.920;6.936;2023-03-23T06:10:10;13.20;99.90
2459;DHT22;1241;50.920;6.936;2023-03-23T06:12:38;13.20;99.90
2459;DHT22;1241;50.920;6.936;2023-03-23T06:15:19;13.20;99.90
2459;DHT22;1241;50.920;6.936;2023-03-23T06:18:07;13.20;99.90
2459;DHT22;1241;50.920;6.936;2023-03-23T06:20:40;13.10;99.90
2459;DHT22;1241;50.920;6.936;2023-03-23T06:23:20;13.20;99.90
2459;DHT22;1241;50.920;6.936;2023-03-23T06:25:47;13.40;99.90
2459;DHT22;1241;50.920;6.936;2023-03-23T06:28:13;13.60;99.90
2459;DHT22;1241;50.920;6.936;2023-03-23T06:30:42;13.70;99.90
2459;DHT22;1241;50.920;6.936;2023-03-23T06:33:09;13.80;99.90
2459;DHT22;1241;50.920;6.936;2023-03-23T06:35:53;13.90;99.90
2459;DHT22;1241;50.920;6.936;2023-03-23T06:38:39;13.90;99.90
2459;DHT22;1241;50.920;6.936;2023-03-23T06:41:05;14.00;99.90
2459;DHT22;1241;50.920;6.936;2023-03-23T06:43:31;14.00;99.90
2459;DHT22;1241;50.920;6.936;2023-03-23T06:46:11;14.00;99.90
2459;DHT22;1241;50.920;6.936;2023-03-23T06:48:39;14.10;99.90
2459;DHT22;1241;50.920;6.936;2023-03-23T06:51:06;14.20;99.90
2459;DHT22;1241;50.920;6.936;2023-03-23T06:53:34;14.20;99.90
2459;DHT22;1241;50.920;6.936;2023-03-23T06:56:00;14.20;99.90
2459;DHT22;1241;50.920;6.936;2023-03-23T06:58:28;14.30;99.90
2459;DHT22;1241;50.920;6.936;2023-03-23T07:00:57;14.30;99.90
2459;DHT22;1241;50.920;6.936;2023-03-23T07:03:29;14.40;99.90
2459;DHT22;1241;50.920;6.936;2023-03-23T07:05:57;14.20;99.90
2459;DHT22;1241;50.920;6.936;2023-03-23T07:08:26;14.20;99.90
2459;DHT22;1241;50.920;6.936;2023-03-23T07:10:53;14.10;99.90
2459;DHT22;1241;50.920;6.936;2023-03-23T07:13:23;14.10;99.90
2459;DHT22;1241;50.920;6.936;2023-03-23T07:15:53;14.10;99.90
2459;DHT22;1241;50.920;6.936;2023-03-23T07:18:20;14.10;99.90
2459;DHT22;1241;50.920;6.936;2023-03-23T07:20:49;14.00;99.90
2459;DHT22;1241;50.920;6.936;2023-03-23T07:23:17;14.00;99.90
2459;DHT22;1241;50.920;6.936;2023-03-23T07:25:49;14.10;99.90
2459;DHT22;1241;50.920;6.936;2023-03-23T07:28:20;14.20;99.90
2459;DHT22;1241;50.920;6.936;2023-03-23T07:30:47;14.10;99.90
2459;DHT22;1241;50.920;6.936;2023-03-23T07:33:13;14.20;99.90
2459;DHT22;1241;50.920;6.936;2023-03-23T07:35:39;14.40;99.90
2459;DHT22;1241;50.920;6.936;2023-03-23T07:38:12;14.60;99.90
2459;DHT22;1241;50.920;6.936;2023-03-23T07:40:41;14.70;99.90
2459;DHT22;1241;50.920;6.936;2023-03-23T07:43:12;14.80;99.90
2459;DHT22;1241;50.920;6.936;2023-03-23T07:45:50;14.90;99.90
2459;DHT22;1241;50.920;6.936;2023-03-23T07:48:17;15.00;99.90
2459;DHT22;1241;50.920;6.936;2023-03-23T07:50:43;15.10;99.90
2459;DHT22;1241;50.920;6.936;2023-03-23T07:53:11;15.00;99.90
2459;DHT22;1241;50.920;6.936;2023-03-23T07:55:37;15.00;99.90
2459;DHT22;1241;50.920;6.936;2023-03-23T07:58:18;15.00;99.90
2459;DHT22;1241;50.920;6.936;2023-03-23T08:00:48;15.20;99.90
2459;DHT22;1241;50.920;6.936;2023-03-23T08:03:16;15.20;99.90
2459;DHT22;1241;50.920;6.936;2023-03-23T08:05:53;15.30;99.90
2459;DHT22;1241;50.920;6.936;2023-03-23T08:08:37;15.40;99.90
2459;DHT22;1241;50.920;6.936;2023-03-23T08:11:21;15.30;99.90
2459;DHT22;1241;50.920;6.936;2023-03-23T08:14:05;15.30;99.90
2459;DHT22;1241;50.920;6.936;2023-03-23T08:16:32;15.30;99.90
2459;DHT22;1241;50.920;6.936;2023-03-23T08:19:14;15.30;99.90
2459;DHT22;1241;50.920;6.936;2023-03-23T08:22:05;15.40;99.90
2459;DHT22;1241;50.920;6.936;2023-03-23T08:24:34;15.50;99.90
2459;DHT22;1241;50.920;6.936;2023-03-23T08:27:14;15.70;99.90
2459;DHT22;1241;50.920;6.936;2023-03-23T08:30:15;15.80;99.90
2459;DHT22;1241;50.920;6.936;2023-03-23T08:33:04;15.90;99.90
2459;DHT22;1241;50.920;6.936;2023-03-23T08:35:43;15.90;99.90
2459;DHT22;1241;50.920;6.936;2023-03-23T08:38:20;16.00;99.90
2459;DHT22;1241;50.920;6.936;2023-03-23T08:41:07;16.20;99.90
2459;DHT22;1241;50.920;6.936;2023-03-23T08:44:09;16.20;99.90
2459;DHT22;1241;50.920;6.936;2023-03-23T08:46:54;16.10;99.90
2459;DHT22;1241;50.920;6.936;2023-03-23T08:49:54;16.10;99.90
2459;DHT22;1241;50.920;6.936;2023-03-23T08:52:39;16.30;99.90
2459;DHT22;1241;50.920;6.936;2023-03-23T08:55:17;16.40;99.90
2459;DHT22;1241;50.920;6.936;2023-03-23T08:58:12;16.50;99.90
2459;DHT22;1241;50.920;6.936;2023-03-23T09:01:07;16.50;99.90
2459;DHT22;1241;50.920;6.936;2023-03-23T09:04:00;16.30;99.90
2459;DHT22;1241;50.920;6.936;2023-03-23T09:06:47;16.20;99.90
2459;DHT22;1241;50.920;6.936;2023-03-23T09:09:13;16.00;99.90
2459;DHT22;1241;50.920;6.936;2023-03-23T09:11:39;15.80;99.90
2459;DHT22;1241;50.920;6.936;2023-03-23T09:14:07;15.90;99.90
2459;DHT22;1241;50.920;6.936;2023-03-23T09:16:33;16.00;99.90
2459;DHT22;1241;50.920;6.936;2023-03-23T09:19:00;16.10;99.90
2459;DHT22;1241;50.920;6.936;2023-03-23T09:21:27;16.10;99.90
2459;DHT22;1241;50.920;6.936;2023-03-23T09:23:55;16.30;99.90
2459;DHT22;1241;50.920;6.936;2023-03-23T09:26:25;16.30;99.90
2459;DHT22;1241;50.920;6.936;2023-03-23T09:28:50;16.40;99.90
2459;DHT22;1241;50.920;6.936;2023-03-23T09:31:17;16.60;99.90
2459;DHT22;1241;50.920;6.936;2023-03-23T09:33:46;16.70;99.90
2459;DHT22;1241;50.920;6.936;2023-03-23T09:36:12;16.70;99.90
2459;DHT22;1241;50.920;6.936;2023-03-23T09:38:40;16.90;99.90
2459;DHT22;1241;50.920;6.936;2023-03-23T09:41:33;16.90;99.90
2459;DHT22;1241;50.920;6.936;2023-03-23T09:44:24;16.90;99.90
2459;DHT22;1241;50.920;6.936;2023-03-23T09:47:11;17.00;99.90
2459;DHT22;1241;50.920;6.936;2023-03-23T09:49:45;16.90;99.90
2459;DHT22;1241;50.920;6.936;2023-03-23T09:52:16;16.70;99.90
2459;DHT22;1241;50.920;6.936;2023-03-23T09:54:44;17.00;99.90
2459;DHT22;1241;50.920;6.936;2023-03-23T10:00:14;16.80;99.90
2459;DHT22;1241;50.920;6.936;2023-03-23T10:05:32;16.90;99.90
2459;DHT22;1241;50.920;6.936;2023-03-23T10:08:00;17.00;99.90
2459;DHT22;1241;50.920;6.936;2023-03-23T10:10:48;17.10;99.90
2459;DHT22;1241;50.920;6.936;2023-03-23T10:16:00;17.30;99.90
2459;DHT22;1241;50.920;6.936;2023-03-23T10:18:37;17.60;99.90
2459;DHT22;1241;50.920;6.936;2023-03-23T10:21:04;17.80;99.90
2459;DHT22;1241;50.920;6.936;2023-03-23T10:23:37;18.10;99.90
2459;DHT22;1241;50.920;6.936;2023-03-23T10:26:44;18.00;99.90
2459;DHT22;1241;50.920;6.936;2023-03-23T10:29:26;18.10;99.90
2459;DHT22;1241;50.920;6.936;2023-03-23T10:32:15;18.10;99.90
2459;DHT22;1241;50.920;6.936;2023-03-23T10:34:59;17.80;99.90
2459;DHT22;1241;50.920;6.936;2023-03-23T10:37:30;17.60;99.90
2459;DHT22;1241;50.920;6.936;2023-03-23T10:40:00;17.30;99.90
2459;DHT22;1241;50.920;6.936;2023-03-23T10:42:31;17.10;99.90
2459;DHT22;1241;50.920;6.936;2023-03-23T10:45:00;16.90;99.90
2459;DHT22;1241;50.920;6.936;2023-03-23T10:47:26;16.60;99.90
2459;DHT22;1241;50.920;6.936;2023-03-23T10:49:56;16.50;99.90
2459;DHT22;1241;50.920;6.936;2023-03-23T10:52:43;16.50;99.90
2459;DHT22;1241;50.920;6.936;2023-03-23T10:55:18;16.50;99.90
2459;DHT22;1241;50.920;6.936;2023-03-23T10:57:46;16.40;99.90
2459;DHT22;1241;50.920;6.936;2023-03-23T11:00:20;16.30;99.90
2459;DHT22;1241;50.920;6.936;2023-03-23T11:05:40;16.50;99.90
2459;DHT22;1241;50.920;6.936;2023-03-23T11:08:16;16.60;99.90
2459;DHT22;1241;50.920;6.936;2023-03-23T11:10:49;16.70;99.90
2459;DHT22;1241;50.920;6.936;2023-03-23T11:13:16;16.90;99.90
2459;DHT22;1241;50.920;6.936;2023-03-23T11:15:44;17.10;99.90
2459;DHT22;1241;50.920;6.936;2023-03-23T11:18:23;17.00;99.90
2459;DHT22;1241;50.920;6.936;2023-03-23T11:20:53;17.20;99.90
2459;DHT22;1241;50.920;6.936;2023-03-23T11:23:31;17.50;99.90
2459;DHT22;1241;50.920;6.936;2023-03-23T11:26:17;17.60;99.90
2459;DHT22;1241;50.920;6.936;2023-03-23T11:28:52;17.60;99.90
2459;DHT22;1241;50.920;6.936;2023-03-23T11:31:23;17.50;99.90
2459;DHT22;1241;50.920;6.936;2023-03-23T11:34:01;17.40;99.90
2459;DHT22;1241;50.920;6.936;2023-03-23T11:36:37;17.40;99.90
2459;DHT22;1241;50.920;6.936;2023-03-23T11:39:20;17.40;99.90
2459;DHT22;1241;50.920;6.936;2023-03-23T11:41:47;17.30;99.90
2459;DHT22;1241;50.920;6.936;2023-03-23T11:44:13;17.00;99.90
2459;DHT22;1241;50.920;6.936;2023-03-23T11:47:00;16.90;99.90
2459;DHT22;1241;50.920;6.936;2023-03-23T11:49:41;16.50;99.90
2459;DHT22;1241;50.920;6.936;2023-03-23T11:52:36;16.40;99.90
2459;DHT22;1241;50.920;6.936;2023-03-23T11:55:31;16.10;99.90
2459;DHT22;1241;50.920;6.936;2023-03-23T11:58:02;16.00;99.90
2459;DHT22;1241;50.920;6.936;2023-03-23T12:00:31;15.90;99.90
2459;DHT22;1241;50.920;6.936;2023-03-23T12:06:08;16.20;99.90
2459;DHT22;1241;50.920;6.936;2023-03-23T12:09:02;16.60;99.90
2459;DHT22;1241;50.920;6.936;2023-03-23T12:14:30;16.70;99.90
2459;DHT22;1241;50.920;6.936;2023-03-23T12:34:26;17.90;99.90
2459;DHT22;1241;50.920;6.936;2023-03-23T12:39:37;18.30;99.90
2459;DHT22;1241;50.920;6.936;2023-03-23T12:52:43;17.50;99.90
2459;DHT22;1241;50.920;6.936;2023-03-23T12:55:38;17.20;99.90
2459;DHT22;1241;50.920;6.936;2023-03-23T12:58:13;17.30;99.90
2459;DHT22;1241;50.920;6.936;2023-03-23T13:03:55;17.50;99.90
2459;DHT22;1241;50.920;6.936;2023-03-23T13:12:02;18.10;99.90
2459;DHT22;1241;50.920;6.936;2023-03-23T13:15:04;18.10;99.90
2459;DHT22;1241;50.920;6.936;2023-03-23T13:17:54;18.00;99.90
2459;DHT22;1241;50.920;6.936;2023-03-23T13:23:26;17.90;99.90
2459;DHT22;1241;50.920;6.936;2023-03-23T13:25:59;17.80;99.90
2459;DHT22;1241;50.920;6.936;2023-03-23T13:28:28;17.80;99.90
2459;DHT22;1241;50.920;6.936;2023-03-23T13:33:28;18.20;99.90
2459;DHT22;1241;50.920;6.936;2023-03-23T13:35:54;18.30;99.90
2459;DHT22;1241;50.920;6.936;2023-03-23T13:38:24;18.10;99.90
2459;DHT22;1241;50.920;6.936;2023-03-23T13:40:51;17.90;99.90
2459;DHT22;1241;50.920;6.936;2023-03-23T13:43:34;17.50;99.90
2459;DHT22;1241;50.920;6.936;2023-03-23T13:46:10;17.10;99.90
2459;DHT22;1241;50.920;6.936;2023-03-23T13:51:47;17.00;99.90
2459;DHT22;1241;50.920;6.936;2023-03-23T13:54:31;17.40;99.90
2459;DHT22;1241;50.920;6.936;2023-03-23T13:57:02;17.80;99.90
2459;DHT22;1241;50.920;6.936;2023-03-23T13:59:54;18.00;99.90
2459;DHT22;1241;50.920;6.936;2023-03-23T14:02:39;18.30;99.90
2459;DHT22;1241;50.920;6.936;2023-03-23T14:08:00;18.80;99.90
2459;DHT22;1241;50.920;6.936;2023-03-23T14:13:04;19.00;99.90
2459;DHT22;1241;50.920;6.936;2023-03-23T14:15:40;19.00;99.90
2459;DHT22;1241;50.920;6.936;2023-03-23T14:18:11;18.90;99.90
2459;DHT22;1241;50.920;6.936;2023-03-23T14:20:38;18.90;99.90
2459;DHT22;1241;50.920;6.936;2023-03-23T14:23:05;18.70;99.90
2459;DHT22;1241;50.920;6.936;2023-03-23T14:25:31;18.70;99.90
2459;DHT22;1241;50.920;6.936;2023-03-23T14:27:59;18.40;99.90
2459;DHT22;1241;50.920;6.936;2023-03-23T14:30:34;18.20;99.90
2459;DHT22;1241;50.920;6.936;2023-03-23T14:33:06;18.10;99.90
2459;DHT22;1241;50.920;6.936;2023-03-23T14:35:35;17.70;99.90
2459;DHT22;1241;50.920;6.936;2023-03-23T14:38:02;17.60;99.90
2459;DHT22;1241;50.920;6.936;2023-03-23T14:40:29;17.40;99.90
2459;DHT22;1241;50.920;6.936;2023-03-23T14:42:56;17.30;99.90
2459;DHT22;1241;50.920;6.936;2023-03-23T14:45:23;17.10;99.90
2459;DHT22;1241;50.920;6.936;2023-03-23T14:47:53;17.00;99.90
2459;DHT22;1241;50.920;6.936;2023-03-23T14:50:39;16.90;99.90
2459;DHT22;1241;50.920;6.936;2023-03-23T14:55:53;16.50;99.90
2459;DHT22;1241;50.920;6.936;2023-03-23T14:58:22;16.40;99.90
2459;DHT22;1241;50.920;6.936;2023-03-23T15:01:07;16.40;99.90
2459;DHT22;1241;50.920;6.936;2023-03-23T15:03:55;16.40;99.90
2459;DHT22;1241;50.920;6.936;2023-03-23T15:06:23;16.60;99.90
2459;DHT22;1241;50.920;6.936;2023-03-23T15:08:53;16.90;99.90
2459;DHT22;1241;50.920;6.936;2023-03-23T15:11:34;17.10;99.90
2459;DHT22;1241;50.920;6.936;2023-03-23T15:14:16;17.30;99.90
2459;DHT22;1241;50.920;6.936;2023-03-23T15:16:46;17.30;99.90
2459;DHT22;1241;50.920;6.936;2023-03-23T15:19:40;17.40;99.90
2459;DHT22;1241;50.920;6.936;2023-03-23T15:22:22;17.50;99.90
2459;DHT22;1241;50.920;6.936;2023-03-23T15:24:50;17.70;99.90
2459;DHT22;1241;50.920;6.936;2023-03-23T15:27:29;17.90;99.90
2459;DHT22;1241;50.920;6.936;2023-03-23T15:29:56;18.00;99.90
2459;DHT22;1241;50.920;6.936;2023-03-23T15:32:28;18.00;99.90
2459;DHT22;1241;50.920;6.936;2023-03-23T15:34:55;18.00;99.90
2459;DHT22;1241;50.920;6.936;2023-03-23T15:37:26;18.10;99.90
2459;DHT22;1241;50.920;6.936;2023-03-23T15:39:53;18.10;99.90
2459;DHT22;1241;50.920;6.936;2023-03-23T15:42:34;18.20;99.90
2459;DHT22;1241;50.920;6.936;2023-03-23T15:50:15;18.10;99.90
2459;DHT22;1241;50.920;6.936;2023-03-23T15:52:42;17.90;99.90
2459;DHT22;1241;50.920;6.936;2023-03-23T15:57:49;17.40;99.90
2459;DHT22;1241;50.920;6.936;2023-03-23T16:00:17;17.30;99.90
2459;DHT22;1241;50.920;6.936;2023-03-23T16:02:48;17.20;99.90
2459;DHT22;1241;50.920;6.936;2023-03-23T16:05:15;17.10;99.90
2459;DHT22;1241;50.920;6.936;2023-03-23T16:07:41;17.10;99.90
2459;DHT22;1241;50.920;6.936;2023-03-23T16:10:15;17.00;99.90
2459;DHT22;1241;50.920;6.936;2023-03-23T16:12:41;16.80;99.90
2459;DHT22;1241;50.920;6.936;2023-03-23T16:15:07;16.80;99.90
2459;DHT22;1241;50.920;6.936;2023-03-23T16:17:34;16.70;99.90
2459;DHT22;1241;50.920;6.936;2023-03-23T16:19:59;16.70;99.90
2459;DHT22;1241;50.920;6.936;2023-03-23T16:22:25;16.70;99.90
2459;DHT22;1241;50.920;6.936;2023-03-23T16:24:51;16.70;99.90
2459;DHT22;1241;50.920;6.936;2023-03-23T16:27:16;16.80;99.90
2459;DHT22;1241;50.920;6.936;2023-03-23T16:29:42;16.90;99.90
2459;DHT22;1241;50.920;6.936;2023-03-23T16:32:08;16.90;99.90
2459;DHT22;1241;50.920;6.936;2023-03-23T16:34:33;16.90;99.90
2459;DHT22;1241;50.920;6.936;2023-03-23T16:37:00;16.90;99.90
2459;DHT22;1241;50.920;6.936;2023-03-23T16:39:26;16.80;99.90
2459;DHT22;1241;50.920;6.936;2023-03-23T16:41:52;16.80;99.90
2459;DHT22;1241;50.920;6.936;2023-03-23T16:44:17;16.60;99.90
2459;DHT22;1241;50.920;6.936;2023-03-23T16:46:43;16.60;99.90
2459;DHT22;1241;50.920;6.936;2023-03-23T16:49:09;16.60;99.90
2459;DHT22;1241;50.920;6.936;2023-03-23T16:51:35;16.40;99.90
2459;DHT22;1241;50.920;6.936;2023-03-23T16:54:01;16.40;99.90
2459;DHT22;1241;50.920;6.936;2023-03-23T16:56:26;16.20;99.90
2459;DHT22;1241;50.920;6.936;2023-03-23T16:58:52;16.20;99.90
2459;DHT22;1241;50.920;6.936;2023-03-23T17:01:18;16.10;99.90
2459;DHT22;1241;50.920;6.936;2023-03-23T17:03:44;16.10;99.90
2459;DHT22;1241;50.920;6.936;2023-03-23T17:06:09;16.20;99.90
2459;DHT22;1241;50.920;6.936;2023-03-23T17:08:35;16.20;99.90
2459;DHT22;1241;50.920;6.936;2023-03-23T17:11:01;16.10;99.90
2459;DHT22;1241;50.920;6.936;2023-03-23T17:13:27;16.10;99.90
2459;DHT22;1241;50.920;6.936;2023-03-23T17:15:54;15.90;99.90
2459;DHT22;1241;50.920;6.936;2023-03-23T17:18:22;15.80;99.90
2459;DHT22;1241;50.920;6.936;2023-03-23T17:20:48;15.70;99.90
2459;DHT22;1241;50.920;6.936;2023-03-23T17:23:14;15.60;99.90
2459;DHT22;1241;50.920;6.936;2023-03-23T17:25:43;15.60;99.90
2459;DHT22;1241;50.920;6.936;2023-03-23T17:28:09;15.50;99.90
2459;DHT22;1241;50.920;6.936;2023-03-23T17:30:35;15.40;99.90
2459;DHT22;1241;50.920;6.936;2023-03-23T17:33:03;15.30;99.90
2459;DHT22;1241;50.920;6.936;2023-03-23T17:35:29;15.20;99.90
2459;DHT22;1241;50.920;6.936;2023-03-23T17:37:55;15.20;99.90
2459;DHT22;1241;50.920;6.936;2023-03-23T17:40:20;15.20;99.90
2459;DHT22;1241;50.920;6.936;2023-03-23T17:42:46;15.10;99.90
2459;DHT22;1241;50.920;6.936;2023-03-23T17:45:12;15.10;99.90
2459;DHT22;1241;50.920;6.936;2023-03-23T17:47:37;15.00;99.90
2459;DHT22;1241;50.920;6.936;2023-03-23T17:50:04;14.90;99.90
2459;DHT22;1241;50.920;6.936;2023-03-23T17:52:30;14.80;99.90
2459;DHT22;1241;50.920;6.936;2023-03-23T17:54:56;14.70;99.90
2459;DHT22;1241;50.920;6.936;2023-03-23T17:57:22;14.70;99.90
2459;DHT22;1241;50.920;6.936;2023-03-23T17:59:49;14.70;99.90
2459;DHT22;1241;50.920;6.936;2023-03-23T18:02:15;14.60;99.90
2459;DHT22;1241;50.920;6.936;2023-03-23T18:04:46;14.70;99.90
2459;DHT22;1241;50.920;6.936;2023-03-23T18:07:12;14.70;99.90
2459;DHT22;1241;50.920;6.936;2023-03-23T18:09:38;14.70;99.90
2459;DHT22;1241;50.920;6.936;2023-03-23T18:12:04;14.70;99.90
2459;DHT22;1241;50.920;6.936;2023-03-23T18:14:30;14.70;99.90
2459;DHT22;1241;50.920;6.936;2023-03-23T18:16:56;14.60;99.90
2459;DHT22;1241;50.920;6.936;2023-03-23T18:19:21;14.60;99.90
2459;DHT22;1241;50.920;6.936;2023-03-23T18:21:47;14.60;99.90